createdAt,value
2019-05-22T00:00:55.078Z,101397.81
2019-05-22T00:02:06.452Z,101400.36
2019-05-22T00:03:15.794Z,101396.84
2019-05-22T00:04:33.463Z,101396.84
2019-05-22T00:05:41.077Z,101399.87
2019-05-22T00:06:47.763Z,101404.73
2019-05-22T00:07:54.191Z,101399.03
2019-05-22T00:08:59.423Z,101400.73
2019-05-22T00:10:06.566Z,101401.22
2019-05-22T00:11:13.064Z,101405.59
2019-05-22T00:12:21.023Z,101404.25
2019-05-22T00:13:35.013Z,101407.40
2019-05-22T00:14:41.360Z,101404.25
2019-05-22T00:15:48.374Z,101400.25
2019-05-22T00:16:54.845Z,101401.22
2019-05-22T00:18:01.873Z,101400.73
2019-05-22T00:19:08.420Z,101405.59
2019-05-22T00:20:14.124Z,101400.36
2019-05-22T00:21:21.817Z,101401.22
2019-05-22T00:22:31.422Z,101405.22
2019-05-22T00:23:38.271Z,101411.40
2019-05-22T00:24:46.716Z,101407.88
2019-05-22T00:25:53.456Z,101409.92
2019-05-22T00:27:01.148Z,101410.06
2019-05-22T00:28:07.083Z,101409.21
2019-05-22T00:29:12.978Z,101408.84
2019-05-22T00:30:20.897Z,101412.47
2019-05-22T00:31:27.160Z,101408.62
2019-05-22T00:32:34.171Z,101407.39
2019-05-22T00:33:39.141Z,101411.05
2019-05-22T00:34:44.740Z,101411.54
2019-05-22T00:35:52.344Z,101408.39
2019-05-22T00:36:58.246Z,101412.61
2019-05-22T00:38:05.661Z,101412.14
2019-05-22T00:39:12.424Z,101407.39
2019-05-22T00:40:22.366Z,101406.91
2019-05-22T00:41:28.973Z,101408.14
2019-05-22T00:42:36.129Z,101405.80
2019-05-22T00:43:45.071Z,101410.80
2019-05-22T00:44:52.599Z,101409.09
2019-05-22T00:45:58.237Z,101414.80
2019-05-22T00:47:04.869Z,101416.47
2019-05-22T00:48:12.047Z,101410.80
2019-05-22T00:49:18.069Z,101414.17
2019-05-22T00:50:29.362Z,101419.51
2019-05-22T00:52:02.444Z,101416.13
2019-05-22T00:53:26.196Z,101415.39
2019-05-22T00:54:43.335Z,101420.73
2019-05-22T00:55:50.099Z,101420.39
2019-05-22T00:57:11.554Z,101423.05
2019-05-22T00:58:32.105Z,101421.72
2019-05-22T00:59:40.426Z,101419.05
2019-05-22T01:01:12.785Z,101418.20
2019-05-22T01:02:21.639Z,101416.87
2019-05-22T01:03:27.230Z,101419.64
2019-05-22T01:04:35.618Z,101419.80
2019-05-22T01:05:43.034Z,101418.56
2019-05-22T01:06:49.148Z,101417.86
2019-05-22T01:07:55.838Z,101422.45
2019-05-22T01:09:07.734Z,101422.70
2019-05-22T01:10:13.437Z,101428.55
2019-05-22T01:11:21.850Z,101428.03
2019-05-22T01:12:30.139Z,101425.62
2019-05-22T01:13:37.790Z,101427.30
2019-05-22T01:14:45.246Z,101429.48
2019-05-22T01:15:52.026Z,101432.52
2019-05-22T01:16:58.106Z,101426.81
2019-05-22T01:18:07.269Z,101433.96
2019-05-22T01:19:13.631Z,101429.11
2019-05-22T01:20:24.260Z,101432.41
2019-05-22T01:21:31.504Z,101435.69
2019-05-22T01:22:39.347Z,101435.69
2019-05-22T01:23:46.581Z,101437.02
2019-05-22T01:24:54.752Z,101438.70
2019-05-22T01:26:01.587Z,101437.36
2019-05-22T01:27:09.267Z,101434.36
2019-05-22T01:28:16.780Z,101436.03
2019-05-22T01:29:23.058Z,101439.55
2019-05-22T01:30:46.039Z,101436.77
2019-05-22T01:31:55.604Z,101437.73
2019-05-22T01:33:04.556Z,101441.73
2019-05-22T01:34:19.151Z,101440.87
2019-05-22T01:35:31.994Z,101444.40
2019-05-22T01:36:44.471Z,101445.62
2019-05-22T01:37:51.108Z,101440.77
2019-05-22T01:39:03.169Z,101443.44
2019-05-22T01:40:20.449Z,101448.77
2019-05-22T01:41:31.187Z,101444.40
2019-05-22T01:42:42.692Z,101445.11
2019-05-22T01:43:50.985Z,101443.66
2019-05-22T01:45:05.956Z,101452.03
2019-05-22T01:46:06.150Z,101458.22
2019-05-22T01:47:18.151Z,101453.00
2019-05-22T01:48:29.275Z,101457.10
2019-05-22T01:49:38.761Z,101457.73
2019-05-22T01:50:48.623Z,101453.02
2019-05-22T01:51:56.723Z,101455.69
2019-05-22T01:53:03.739Z,101459.31
2019-05-22T01:54:11.680Z,101456.27
2019-05-22T01:55:22.177Z,101463.42
2019-05-22T01:56:27.619Z,101457.27
2019-05-22T01:57:33.314Z,101453.27
2019-05-22T01:58:41.312Z,101455.31
2019-05-22T01:59:46.911Z,101454.23
2019-05-22T02:00:56.415Z,101455.67
2019-05-22T02:02:01.699Z,101462.84
2019-05-22T02:03:08.765Z,101456.41
2019-05-22T02:04:14.909Z,101463.06
2019-05-22T02:05:23.093Z,101459.20
2019-05-22T02:06:28.446Z,101457.02
2019-05-22T02:07:36.084Z,101461.88
2019-05-22T02:08:45.293Z,101465.98
2019-05-22T02:09:52.741Z,101468.64
2019-05-22T02:10:59.825Z,101463.69
2019-05-22T02:12:10.439Z,101469.02
2019-05-22T02:13:20.331Z,101469.98
2019-05-22T02:14:27.861Z,101463.31
2019-05-22T02:15:34.970Z,101465.75
2019-05-22T02:16:55.911Z,101464.19
2019-05-22T02:17:51.230Z,101469.14
2019-05-22T02:18:57.005Z,101467.47
2019-05-22T02:20:04.451Z,101467.09
2019-05-22T02:21:11.237Z,101465.39
2019-05-22T02:22:16.979Z,101461.53
2019-05-22T02:23:23.812Z,101464.20
2019-05-22T02:24:29.955Z,101465.02
2019-05-22T02:25:36.553Z,101465.53
2019-05-22T02:26:42.042Z,101460.68
2019-05-22T02:27:48.227Z,101463.34
2019-05-22T02:28:55.242Z,101462.02
2019-05-22T02:30:02.096Z,101463.20
2019-05-22T02:31:07.547Z,101461.39
2019-05-22T02:32:14.911Z,101472.05
2019-05-22T02:33:22.197Z,101474.13
2019-05-22T02:34:29.499Z,101469.28
2019-05-22T02:35:34.545Z,101470.72
2019-05-22T02:36:41.207Z,101469.02
2019-05-22T02:37:48.197Z,101475.67
2019-05-22T02:38:55.290Z,101466.72
2019-05-22T02:40:01.128Z,101469.02
2019-05-22T02:41:09.023Z,101472.80
2019-05-22T02:42:19.228Z,101473.14
2019-05-22T02:43:26.778Z,101480.55
2019-05-22T02:44:32.525Z,101479.55
2019-05-22T02:45:38.167Z,101480.88
2019-05-22T02:46:43.298Z,101486.22
2019-05-22T02:47:49.375Z,101482.22
2019-05-22T02:48:55.771Z,101488.40
2019-05-22T02:50:01.892Z,101492.39
2019-05-22T02:51:07.111Z,101482.22
2019-05-22T02:52:13.254Z,101490.21
2019-05-22T02:53:18.556Z,101488.02
2019-05-22T02:54:24.369Z,101484.03
2019-05-22T02:55:29.640Z,101493.02
2019-05-22T02:56:36.820Z,101490.83
2019-05-22T02:57:42.441Z,101486.83
2019-05-22T02:58:49.329Z,101495.68
2019-05-22T02:59:54.449Z,101489.88
2019-05-22T03:01:05.618Z,101493.02
2019-05-22T03:02:12.833Z,101494.69
2019-05-22T03:03:19.691Z,101491.20
2019-05-22T03:04:27.850Z,101492.39
2019-05-22T03:05:34.166Z,101489.25
2019-05-22T03:06:40.141Z,101494.95
2019-05-22T03:07:47.539Z,101492.15
2019-05-22T03:09:10.921Z,101496.15
2019-05-22T03:10:19.126Z,101494.70
2019-05-22T03:11:26.367Z,101498.70
2019-05-22T03:12:33.675Z,101490.34
2019-05-22T03:14:01.550Z,101493.00
2019-05-22T03:15:16.861Z,101498.70
2019-05-22T03:16:23.506Z,101500.04
2019-05-22T03:17:31.492Z,101499.66
2019-05-22T03:18:38.003Z,101504.37
2019-05-22T03:19:45.767Z,101503.55
2019-05-22T03:20:50.952Z,101503.41
2019-05-22T03:21:58.078Z,101506.45
2019-05-22T03:23:40.897Z,101507.64
2019-05-22T03:24:46.862Z,101503.17
2019-05-22T03:25:52.511Z,101501.49
2019-05-22T03:26:59.131Z,101505.97
2019-05-22T03:28:05.653Z,101505.49
2019-05-22T03:29:12.571Z,101507.30
2019-05-22T03:30:27.655Z,101508.64
2019-05-22T03:31:33.220Z,101514.45
2019-05-22T03:32:43.340Z,101511.30
2019-05-22T03:33:46.134Z,101510.83
2019-05-22T03:34:51.262Z,101509.12
2019-05-22T03:36:07.128Z,101511.64
2019-05-22T03:37:12.893Z,101510.83
2019-05-22T03:38:19.378Z,101514.45
2019-05-22T03:39:25.045Z,101514.08
2019-05-22T03:40:31.687Z,101516.88
2019-05-22T03:41:37.413Z,101522.69
2019-05-22T03:42:43.255Z,101511.17
2019-05-22T03:43:50.677Z,101520.98
2019-05-22T03:44:56.898Z,101514.32
2019-05-22T03:46:10.859Z,101516.62
2019-05-22T03:47:16.840Z,101524.61
2019-05-22T03:48:22.325Z,101518.32
2019-05-22T03:49:31.005Z,101520.98
2019-05-22T03:50:37.496Z,101515.17
2019-05-22T03:51:44.814Z,101524.98
2019-05-22T03:52:50.965Z,101518.94
2019-05-22T03:53:57.866Z,101533.70
2019-05-22T03:55:03.051Z,101521.34
2019-05-22T03:56:08.664Z,101521.58
2019-05-22T03:57:14.375Z,101518.58
2019-05-22T03:58:20.911Z,101523.05
2019-05-22T03:59:26.106Z,101521.72
2019-05-22T04:00:32.940Z,101520.02
2019-05-22T04:01:39.270Z,101520.64
2019-05-22T04:02:48.510Z,101514.08
2019-05-22T04:03:55.385Z,101520.27
2019-05-22T04:05:01.265Z,101521.11
2019-05-22T04:06:06.720Z,101522.31
2019-05-22T04:07:23.393Z,101522.82
2019-05-22T04:08:31.099Z,101521.97
2019-05-22T04:09:39.266Z,101521.97
2019-05-22T04:10:56.690Z,101536.62
2019-05-22T04:12:03.126Z,101524.63
2019-05-22T04:13:08.384Z,101531.77
2019-05-22T04:14:14.118Z,101527.88
2019-05-22T04:15:20.486Z,101528.87
2019-05-22T04:16:27.251Z,101531.16
2019-05-22T04:17:34.070Z,101539.16
2019-05-22T04:18:41.185Z,101535.53
2019-05-22T04:19:51.117Z,101539.05
2019-05-22T04:20:57.416Z,101532.73
2019-05-22T04:22:02.888Z,101537.95
2019-05-22T04:23:08.892Z,101537.81
2019-05-22T04:24:14.869Z,101539.52
2019-05-22T04:25:20.936Z,101544.38
2019-05-22T04:26:26.606Z,101549.70
2019-05-22T04:27:33.135Z,101551.99
2019-05-22T04:28:47.437Z,101548.23
2019-05-22T04:29:53.109Z,101554.05
2019-05-22T04:30:59.922Z,101554.53
2019-05-22T04:32:15.675Z,101553.81
2019-05-22T04:33:21.564Z,101548.96
2019-05-22T04:34:27.304Z,101555.86
2019-05-22T04:35:33.178Z,101556.72
2019-05-22T04:36:39.206Z,101559.75
2019-05-22T04:37:46.716Z,101556.13
2019-05-22T04:38:52.809Z,101561.32
2019-05-22T04:40:55.461Z,101555.52
2019-05-22T04:42:02.475Z,101561.69
2019-05-22T04:43:08.376Z,101563.73
2019-05-22T04:44:14.502Z,101563.64
2019-05-22T04:45:20.413Z,101566.64
2019-05-22T04:46:26.732Z,101560.36
2019-05-22T04:47:33.595Z,101568.72
2019-05-22T04:48:39.385Z,101565.58
2019-05-22T04:49:45.274Z,101561.58
2019-05-22T04:50:52.428Z,101563.88
2019-05-22T04:51:58.087Z,101571.02
2019-05-22T04:53:03.941Z,101564.83
2019-05-22T04:54:09.140Z,101563.50
2019-05-22T04:55:15.039Z,101563.98
2019-05-22T04:56:20.439Z,101566.64
2019-05-22T04:57:26.447Z,101565.45
2019-05-22T04:58:31.948Z,101564.11
2019-05-22T04:59:38.281Z,101565.55
2019-05-22T05:00:43.891Z,101566.06
2019-05-22T05:01:50.503Z,101560.73
2019-05-22T05:02:55.963Z,101566.06
2019-05-22T05:04:02.332Z,101567.73
2019-05-22T05:05:09.042Z,101562.41
2019-05-22T05:06:15.464Z,101564.73
2019-05-22T05:07:21.089Z,101569.20
2019-05-22T05:08:27.054Z,101566.65
2019-05-22T05:09:32.685Z,101564.12
2019-05-22T05:10:40.331Z,101565.94
2019-05-22T05:11:45.667Z,101571.37
2019-05-22T05:12:51.784Z,101571.50
2019-05-22T05:13:57.396Z,101571.98
2019-05-22T05:15:03.177Z,101575.13
2019-05-22T05:16:08.612Z,101573.31
2019-05-22T05:17:14.782Z,101570.75
2019-05-22T05:18:19.954Z,101577.79
2019-05-22T05:19:25.730Z,101574.27
2019-05-22T05:20:31.208Z,101578.16
2019-05-22T05:21:38.934Z,101572.46
2019-05-22T05:22:45.615Z,101577.17
2019-05-22T05:23:52.138Z,101578.16
2019-05-22T05:24:57.179Z,101576.46
2019-05-22T05:26:02.887Z,101578.16
2019-05-22T05:27:08.273Z,101572.36
2019-05-22T05:28:14.972Z,101578.78
2019-05-22T05:29:28.989Z,101572.94
2019-05-22T05:30:34.919Z,101577.68
2019-05-22T05:31:41.222Z,101576.83
2019-05-22T05:32:48.030Z,101575.98
2019-05-22T05:34:32.004Z,101576.83
2019-05-22T05:35:38.878Z,101576.83
2019-05-22T05:36:44.727Z,101581.55
2019-05-22T05:37:51.009Z,101584.58
2019-05-22T05:38:57.128Z,101580.58
2019-05-22T05:40:50.051Z,101585.30
2019-05-22T05:41:55.883Z,101579.48
2019-05-22T05:43:01.887Z,101585.67
2019-05-22T05:44:08.206Z,101583.63
2019-05-22T05:45:13.969Z,101586.77
2019-05-22T05:46:19.960Z,101585.81
2019-05-22T05:47:25.661Z,101597.19
2019-05-22T05:48:33.431Z,101602.03
2019-05-22T05:49:39.107Z,101592.57
2019-05-22T05:51:31.175Z,101597.32
2019-05-22T05:52:37.693Z,101595.23
2019-05-22T05:53:59.563Z,101592.23
2019-05-22T05:55:06.490Z,101598.89
2019-05-22T05:56:16.442Z,101599.23
2019-05-22T05:58:10.840Z,101598.89
2019-05-22T05:59:18.269Z,101591.86
2019-05-22T06:00:25.850Z,101595.95
2019-05-22T06:01:38.335Z,101598.14
2019-05-22T06:02:56.005Z,101599.85
2019-05-22T06:03:50.868Z,101603.84
2019-05-22T06:04:56.194Z,101605.18
2019-05-22T06:06:06.207Z,101603.84
2019-05-22T06:07:24.424Z,101608.80
2019-05-22T06:08:30.171Z,101604.47
2019-05-22T06:09:35.304Z,101606.28
2019-05-22T06:11:42.602Z,101612.80
2019-05-22T06:12:48.177Z,101615.36
2019-05-22T06:13:53.911Z,101618.27
2019-05-22T06:15:00.642Z,101613.79
2019-05-22T06:16:50.103Z,101622.27
2019-05-22T06:18:32.091Z,101616.22
2019-05-22T06:19:41.739Z,101622.40
2019-05-22T06:21:02.688Z,101626.27
2019-05-22T06:21:55.253Z,101620.93
2019-05-22T06:23:49.872Z,101625.78
2019-05-22T06:25:00.911Z,101619.59
2019-05-22T06:26:07.862Z,101633.16
2019-05-22T06:27:25.385Z,101630.02
2019-05-22T06:28:33.975Z,101629.06
2019-05-22T06:29:57.729Z,101631.96
2019-05-22T06:31:05.621Z,101634.52
2019-05-22T06:33:01.299Z,101628.68
2019-05-22T06:34:07.437Z,101630.87
2019-05-22T06:35:12.934Z,101630.87
2019-05-22T06:36:19.624Z,101630.53
2019-05-22T06:37:34.662Z,101630.77
2019-05-22T06:39:04.353Z,101631.14
2019-05-22T06:40:11.713Z,101630.15
2019-05-22T06:41:19.396Z,101629.91
2019-05-22T06:42:24.644Z,101629.53
2019-05-22T06:44:22.644Z,101630.87
2019-05-22T06:45:28.437Z,101629.30
2019-05-22T06:46:47.927Z,101629.67
2019-05-22T06:47:53.582Z,101623.96
2019-05-22T06:49:01.883Z,101630.05
2019-05-22T06:50:08.577Z,101625.42
2019-05-22T06:51:19.309Z,101634.17
2019-05-22T06:52:21.699Z,101636.59
2019-05-22T06:53:26.851Z,101634.27
2019-05-22T06:54:32.552Z,101634.64
2019-05-22T06:55:37.898Z,101631.13
2019-05-22T06:56:43.803Z,101638.03
2019-05-22T06:57:49.088Z,101629.20
2019-05-22T06:58:54.676Z,101629.92
2019-05-22T07:00:13.948Z,101635.12
2019-05-22T07:01:10.836Z,101632.83
2019-05-22T07:02:19.352Z,101636.83
2019-05-22T07:03:25.694Z,101634.53
2019-05-22T07:04:31.483Z,101634.05
2019-05-22T07:05:37.950Z,101636.95
2019-05-22T07:06:43.590Z,101637.33
2019-05-22T07:07:49.306Z,101639.78
2019-05-22T07:08:54.574Z,101643.53
2019-05-22T07:10:00.701Z,101639.16
2019-05-22T07:11:05.744Z,101642.31
2019-05-22T07:12:13.255Z,101644.98
2019-05-22T07:13:19.950Z,101643.40
2019-05-22T07:14:27.685Z,101643.29
2019-05-22T07:15:42.946Z,101642.67
2019-05-22T07:16:49.566Z,101646.42
2019-05-22T07:17:55.793Z,101644.74
2019-05-22T07:19:01.740Z,101646.55
2019-05-22T07:20:07.837Z,101648.60
2019-05-22T07:21:13.526Z,101648.97
2019-05-22T07:22:18.921Z,101655.39
2019-05-22T07:23:29.020Z,101649.58
2019-05-22T07:24:34.212Z,101656.14
2019-05-22T07:25:42.199Z,101655.77
2019-05-22T07:26:48.945Z,101657.11
2019-05-22T07:27:55.026Z,101647.77
2019-05-22T07:29:04.922Z,101657.59
2019-05-22T07:30:09.981Z,101652.39
2019-05-22T07:31:15.265Z,101653.34
2019-05-22T07:32:21.082Z,101656.39
2019-05-22T07:33:26.388Z,101655.39
2019-05-22T07:34:32.247Z,101660.87
2019-05-22T07:35:56.176Z,101654.93
2019-05-22T07:36:46.145Z,101660.75
2019-05-22T07:37:51.884Z,101657.70
2019-05-22T07:38:58.080Z,101662.93
2019-05-22T07:40:03.527Z,101657.94
2019-05-22T07:41:09.966Z,101656.98
2019-05-22T07:42:15.132Z,101654.20
2019-05-22T07:43:22.469Z,101660.73
2019-05-22T07:44:27.703Z,101664.15
2019-05-22T07:45:35.603Z,101660.48
2019-05-22T07:46:40.903Z,101662.91
2019-05-22T07:47:48.340Z,101659.76
2019-05-22T07:48:54.069Z,101668.00
2019-05-22T07:49:59.963Z,101662.07
2019-05-22T07:51:05.490Z,101660.97
2019-05-22T07:52:12.124Z,101666.77
2019-05-22T07:53:17.831Z,101661.45
2019-05-22T07:54:24.150Z,101667.25
2019-05-22T07:55:32.426Z,101658.88
2019-05-22T07:56:39.180Z,101666.16
2019-05-22T07:57:47.853Z,101665.16
2019-05-22T07:58:54.115Z,101670.14
2019-05-22T07:59:59.147Z,101659.69
2019-05-22T08:01:05.355Z,101658.36
2019-05-22T08:02:11.234Z,101665.49
2019-05-22T08:03:18.158Z,101663.80
2019-05-22T08:04:24.569Z,101659.53
2019-05-22T08:05:30.897Z,101655.64
2019-05-22T08:06:36.088Z,101666.89
2019-05-22T08:07:42.099Z,101654.76
2019-05-22T08:08:47.502Z,101659.47
2019-05-22T08:09:53.367Z,101661.89
2019-05-22T08:10:59.516Z,101660.33
2019-05-22T08:12:06.703Z,101662.11
2019-05-22T08:13:12.380Z,101661.27
2019-05-22T08:14:19.487Z,101664.41
2019-05-22T08:15:26.309Z,101661.11
2019-05-22T08:16:33.211Z,101658.33
2019-05-22T08:17:39.526Z,101665.23
2019-05-22T08:18:45.812Z,101663.27
2019-05-22T08:19:51.183Z,101661.33
2019-05-22T08:20:57.507Z,101661.78
2019-05-22T08:22:07.290Z,101670.53
2019-05-22T08:23:11.656Z,101666.86
2019-05-22T08:24:17.370Z,101664.67
2019-05-22T08:25:24.301Z,101658.73
2019-05-22T08:26:29.737Z,101662.11
2019-05-22T08:27:36.928Z,101665.86
2019-05-22T08:28:42.350Z,101667.08
2019-05-22T08:29:48.415Z,101664.14
2019-05-22T08:30:54.023Z,101663.17
2019-05-22T08:32:01.022Z,101667.77
2019-05-22T08:33:11.373Z,101664.31
2019-05-22T08:34:18.005Z,101669.06
2019-05-22T08:35:23.799Z,101669.17
2019-05-22T08:36:30.563Z,101667.91
2019-05-22T08:37:39.613Z,101666.30
2019-05-22T08:38:46.258Z,101676.98
2019-05-22T08:39:51.839Z,101669.62
2019-05-22T08:40:59.789Z,101667.78
2019-05-22T08:42:05.200Z,101671.86
2019-05-22T08:43:11.139Z,101674.03
2019-05-22T08:44:17.751Z,101675.16
2019-05-22T08:45:24.056Z,101679.85
2019-05-22T08:46:31.025Z,101679.47
2019-05-22T08:47:37.027Z,101677.25
2019-05-22T08:48:48.215Z,101681.36
2019-05-22T08:49:51.152Z,101675.03
2019-05-22T08:50:57.020Z,101673.33
2019-05-22T08:52:03.182Z,101675.16
2019-05-22T08:53:09.022Z,101674.67
2019-05-22T08:54:15.330Z,101673.17
2019-05-22T08:55:20.953Z,101675.09
2019-05-22T08:56:26.811Z,101676.67
2019-05-22T08:57:32.158Z,101671.17
2019-05-22T08:58:40.822Z,101677.59
2019-05-22T08:59:46.383Z,101674.80
2019-05-22T09:00:51.993Z,101674.36
2019-05-22T09:01:57.211Z,101674.45
2019-05-22T09:03:02.994Z,101673.91
2019-05-22T09:04:08.509Z,101667.50
2019-05-22T09:05:15.881Z,101672.19
2019-05-22T09:06:21.286Z,101674.67
2019-05-22T09:07:26.974Z,101676.09
2019-05-22T09:08:32.051Z,101678.77
2019-05-22T09:09:37.819Z,101673.94
2019-05-22T09:10:43.088Z,101679.85
2019-05-22T09:11:48.735Z,101683.85
2019-05-22T09:12:53.876Z,101680.87
2019-05-22T09:13:59.405Z,101675.86
2019-05-22T09:15:05.430Z,101675.88
2019-05-22T09:16:12.755Z,101680.11
2019-05-22T09:17:19.451Z,101674.30
2019-05-22T09:18:25.507Z,101677.95
2019-05-22T09:19:30.709Z,101679.75
2019-05-22T09:20:48.914Z,101677.86
2019-05-22T09:21:43.819Z,101676.61
2019-05-22T09:22:49.947Z,101670.98
2019-05-22T09:23:55.839Z,101685.31
2019-05-22T09:25:01.439Z,101674.61
2019-05-22T09:26:08.168Z,101676.77
2019-05-22T09:27:14.469Z,101681.14
2019-05-22T09:28:19.521Z,101679.17
2019-05-22T09:29:25.297Z,101679.89
2019-05-22T09:30:30.436Z,101682.30
2019-05-22T09:31:36.073Z,101678.38
2019-05-22T09:32:41.115Z,101678.30
2019-05-22T09:33:47.077Z,101678.52
2019-05-22T09:34:52.396Z,101681.56
2019-05-22T09:35:58.387Z,101675.84
2019-05-22T09:37:03.844Z,101681.47
2019-05-22T09:38:09.532Z,101674.93
2019-05-22T09:39:15.674Z,101672.86
2019-05-22T09:40:21.527Z,101673.87
2019-05-22T09:41:26.723Z,101676.39
2019-05-22T09:42:33.134Z,101677.36
2019-05-22T09:43:38.801Z,101681.05
2019-05-22T09:44:44.386Z,101682.94
2019-05-22T09:45:49.815Z,101692.83
2019-05-22T09:46:56.385Z,101687.17
2019-05-22T09:48:01.458Z,101689.91
2019-05-22T09:49:08.631Z,101685.47
2019-05-22T09:50:14.867Z,101693.50
2019-05-22T09:51:20.622Z,101682.36
2019-05-22T09:52:25.944Z,101682.39
2019-05-22T09:53:32.484Z,101681.66
2019-05-22T09:54:38.676Z,101687.61
2019-05-22T09:55:47.265Z,101689.70
2019-05-22T09:56:52.235Z,101684.42
2019-05-22T09:57:57.940Z,101689.54
2019-05-22T09:59:03.367Z,101690.83
2019-05-22T10:00:10.570Z,101693.21
2019-05-22T10:01:15.823Z,101689.38
2019-05-22T10:02:21.915Z,101682.39
2019-05-22T10:03:27.223Z,101689.48
2019-05-22T10:04:33.340Z,101682.85
2019-05-22T10:05:38.376Z,101689.45
2019-05-22T10:06:44.498Z,101691.19
2019-05-22T10:08:00.347Z,101687.33
2019-05-22T10:08:58.140Z,101688.08
2019-05-22T10:10:04.632Z,101692.59
2019-05-22T10:11:10.468Z,101692.09
2019-05-22T10:12:15.995Z,101690.00
2019-05-22T10:13:22.555Z,101690.16
2019-05-22T10:14:27.792Z,101684.98
2019-05-22T10:15:33.920Z,101680.13
2019-05-22T10:16:39.088Z,101680.22
2019-05-22T10:17:49.592Z,101688.34
2019-05-22T10:18:54.996Z,101685.02
2019-05-22T10:20:01.418Z,101686.72
2019-05-22T10:21:06.757Z,101685.11
2019-05-22T10:22:13.112Z,101686.16
2019-05-22T10:23:18.782Z,101686.25
2019-05-22T10:24:25.126Z,101678.78
2019-05-22T10:25:30.591Z,101683.34
2019-05-22T10:26:36.926Z,101685.05
2019-05-22T10:27:41.911Z,101686.38
2019-05-22T10:28:47.599Z,101686.11
2019-05-22T10:29:52.953Z,101686.95
2019-05-22T10:30:59.869Z,101691.95
2019-05-22T10:32:05.869Z,101684.19
2019-05-22T10:33:11.842Z,101680.45
2019-05-22T10:34:17.200Z,101687.31
2019-05-22T10:35:27.966Z,101685.24
2019-05-22T10:36:34.077Z,101684.91
2019-05-22T10:37:39.908Z,101686.53
2019-05-22T10:38:45.417Z,101684.74
2019-05-22T10:39:51.479Z,101682.34
2019-05-22T10:40:59.288Z,101694.03
2019-05-22T10:42:04.339Z,101683.31
2019-05-22T10:43:09.926Z,101676.98
2019-05-22T10:44:15.759Z,101677.34
2019-05-22T10:45:20.978Z,101677.68
2019-05-22T10:46:27.230Z,101685.11
2019-05-22T10:47:33.587Z,101679.38
2019-05-22T10:48:40.529Z,101678.53
2019-05-22T10:49:46.515Z,101676.22
2019-05-22T10:50:52.170Z,101673.74
2019-05-22T10:51:57.704Z,101675.53
2019-05-22T10:53:03.391Z,101676.59
2019-05-22T10:54:08.604Z,101669.05
2019-05-22T10:55:14.888Z,101671.08
2019-05-22T10:56:20.264Z,101668.89
2019-05-22T10:57:25.909Z,101671.93
2019-05-22T10:58:31.447Z,101675.30
2019-05-22T10:59:37.088Z,101668.84
2019-05-22T11:00:42.506Z,101674.77
2019-05-22T11:01:48.453Z,101672.91
2019-05-22T11:02:53.799Z,101671.23
2019-05-22T11:04:00.144Z,101666.01
2019-05-22T11:05:05.771Z,101667.02
2019-05-22T11:06:12.640Z,101664.66
2019-05-22T11:07:18.009Z,101665.72
2019-05-22T11:08:23.897Z,101661.66
2019-05-22T11:09:29.453Z,101664.91
2019-05-22T11:10:36.432Z,101671.66
2019-05-22T11:11:42.667Z,101662.43
2019-05-22T11:12:48.370Z,101662.55
2019-05-22T11:14:01.463Z,101670.27
2019-05-22T11:15:01.082Z,101665.39
2019-05-22T11:16:06.305Z,101668.41
2019-05-22T11:17:12.407Z,101669.46
2019-05-22T11:18:17.702Z,101672.22
2019-05-22T11:19:23.974Z,101667.33
2019-05-22T11:20:30.661Z,101667.13
2019-05-22T11:21:36.469Z,101666.39
2019-05-22T11:22:42.374Z,101667.03
2019-05-22T11:23:52.367Z,101672.02
2019-05-22T11:24:55.076Z,101674.91
2019-05-22T11:26:00.871Z,101667.04
2019-05-22T11:27:06.425Z,101670.19
2019-05-22T11:28:12.479Z,101679.25
2019-05-22T11:29:17.847Z,101676.89
2019-05-22T11:30:24.255Z,101670.66
2019-05-22T11:31:29.559Z,101678.67
2019-05-22T11:32:36.005Z,101666.65
2019-05-22T11:33:41.271Z,101668.05
2019-05-22T11:34:47.656Z,101667.58
2019-05-22T11:35:53.362Z,101663.91
2019-05-22T11:36:59.054Z,101664.63
2019-05-22T11:38:04.637Z,101663.61
2019-05-22T11:39:13.717Z,101658.30
2019-05-22T11:40:21.253Z,101659.70
2019-05-22T11:41:27.484Z,101657.74
2019-05-22T11:42:32.697Z,101659.45
2019-05-22T11:43:38.719Z,101655.73
2019-05-22T11:44:43.890Z,101656.05
2019-05-22T11:45:49.853Z,101657.25
2019-05-22T11:46:54.968Z,101652.06
2019-05-22T11:48:01.007Z,101643.70
2019-05-22T11:49:06.508Z,101655.35
2019-05-22T11:50:13.411Z,101652.85
2019-05-22T11:51:20.293Z,101660.61
2019-05-22T11:52:28.246Z,101656.58
2019-05-22T11:53:33.669Z,101651.39
2019-05-22T11:54:39.372Z,101655.61
2019-05-22T11:55:46.319Z,101650.09
2019-05-22T11:56:52.569Z,101653.68
2019-05-22T11:57:58.185Z,101655.39
2019-05-22T11:59:04.147Z,101651.23
2019-05-22T12:00:10.059Z,101649.09
2019-05-22T12:01:16.100Z,101644.42
2019-05-22T12:02:22.608Z,101644.75
2019-05-22T12:03:29.744Z,101649.85
2019-05-22T12:04:47.133Z,101645.46
2019-05-22T12:05:44.116Z,101645.00
2019-05-22T12:06:53.257Z,101646.17
2019-05-22T12:07:57.301Z,101640.13
2019-05-22T12:09:04.292Z,101633.13
2019-05-22T12:10:10.799Z,101642.05
2019-05-22T12:11:19.025Z,101643.09
2019-05-22T12:12:25.568Z,101644.33
2019-05-22T12:13:31.722Z,101644.84
2019-05-22T12:14:38.088Z,101643.36
2019-05-22T12:15:43.137Z,101640.80
2019-05-22T12:16:53.005Z,101638.64
2019-05-22T12:17:57.135Z,101634.61
2019-05-22T12:19:02.753Z,101639.67
2019-05-22T12:20:10.073Z,101637.66
2019-05-22T12:21:16.479Z,101642.19
2019-05-22T12:22:21.727Z,101633.94
2019-05-22T12:23:27.911Z,101641.66
2019-05-22T12:24:37.082Z,101634.79
2019-05-22T12:25:41.460Z,101629.23
2019-05-22T12:26:46.702Z,101638.64
2019-05-22T12:27:52.614Z,101632.91
2019-05-22T12:28:57.850Z,101641.33
2019-05-22T12:30:03.794Z,101637.30
2019-05-22T12:31:09.706Z,101633.27
2019-05-22T12:32:15.376Z,101638.11
2019-05-22T12:33:20.725Z,101635.59
2019-05-22T12:34:26.947Z,101640.30
2019-05-22T12:35:32.274Z,101641.25
2019-05-22T12:36:37.966Z,101637.53
2019-05-22T12:37:44.239Z,101637.17
2019-05-22T12:38:50.064Z,101637.66
2019-05-22T12:39:56.630Z,101638.88
2019-05-22T12:41:03.817Z,101635.02
2019-05-22T12:42:09.127Z,101640.09
2019-05-22T12:43:15.209Z,101637.30
2019-05-22T12:44:21.510Z,101643.22
2019-05-22T12:45:29.010Z,101641.78
2019-05-22T12:46:34.771Z,101637.81
2019-05-22T12:47:41.005Z,101638.21
2019-05-22T12:48:46.705Z,101643.66
2019-05-22T12:49:53.082Z,101634.77
2019-05-22T12:50:58.638Z,101632.64
2019-05-22T12:52:05.729Z,101634.22
2019-05-22T12:53:13.686Z,101630.53
2019-05-22T12:54:19.711Z,101631.91
2019-05-22T12:55:25.421Z,101637.17